sensor_id;sensor_type;location;lat;lon;timestamp;P1;durP1;ratioP1;P2;durP2;ratioP2
70812;SDS011;62099;52.170;5.386;2022-10-28T00:01:12;19.05;;;8.35;;
70812;SDS011;62099;52.170;5.386;2022-10-28T00:03:40;20.77;;;8.63;;
70812;SDS011;62099;52.170;5.386;2022-10-28T00:06:09;20.35;;;8.40;;
70812;SDS011;62099;52.170;5.386;2022-10-28T00:08:41;16.77;;;8.32;;
70812;SDS011;62099;52.170;5.386;2022-10-28T00:13:37;18.20;;;7.80;;
70812;SDS011;62099;52.170;5.386;2022-10-28T00:18:45;20.75;;;8.20;;
70812;SDS011;62099;52.170;5.386;2022-10-28T00:21:13;23.90;;;9.02;;
70812;SDS011;62099;52.170;5.386;2022-10-28T00:23:42;20.60;;;8.45;;
70812;SDS011;62099;52.170;5.386;2022-10-28T00:26:14;20.27;;;9.32;;
70812;SDS011;62099;52.170;5.386;2022-10-28T00:28:44;16.45;;;7.93;;
70812;SDS011;62099;52.170;5.386;2022-10-28T00:31:13;20.88;;;8.52;;
70812;SDS011;62099;52.170;5.386;2022-10-28T00:33:41;20.23;;;8.88;;
70812;SDS011;62099;52.170;5.386;2022-10-28T00:38:38;18.80;;;8.00;;
70812;SDS011;62099;52.170;5.386;2022-10-28T00:41:05;18.20;;;8.27;;
70812;SDS011;62099;52.170;5.386;2022-10-28T00:43:52;21.45;;;7.55;;
70812;SDS011;62099;52.170;5.386;2022-10-28T00:49:11;23.13;;;9.02;;
70812;SDS011;62099;52.170;5.386;2022-10-28T00:51:43;19.45;;;8.25;;
70812;SDS011;62099;52.170;5.386;2022-10-28T00:54:13;21.65;;;8.02;;
70812;SDS011;62099;52.170;5.386;2022-10-28T00:56:44;21.55;;;8.45;;
70812;SDS011;62099;52.170;5.386;2022-10-28T00:59:17;18.90;;;7.57;;
70812;SDS011;62099;52.170;5.386;2022-10-28T01:01:48;16.13;;;7.45;;
70812;SDS011;62099;52.170;5.386;2022-10-28T01:04:14;17.75;;;7.78;;
70812;SDS011;62099;52.170;5.386;2022-10-28T01:06:42;18.00;;;7.78;;
70812;SDS011;62099;52.170;5.386;2022-10-28T01:09:09;25.35;;;9.07;;
70812;SDS011;62099;52.170;5.386;2022-10-28T01:11:55;26.05;;;9.15;;
70812;SDS011;62099;52.170;5.386;2022-10-28T01:17:37;19.42;;;8.18;;
70812;SDS011;62099;52.170;5.386;2022-10-28T01:25:46;17.75;;;7.38;;
70812;SDS011;62099;52.170;5.386;2022-10-28T01:28:23;21.45;;;7.82;;
70812;SDS011;62099;52.170;5.386;2022-10-28T01:33:41;21.67;;;7.47;;
70812;SDS011;62099;52.170;5.386;2022-10-28T01:39:16;19.63;;;7.28;;
70812;SDS011;62099;52.170;5.386;2022-10-28T01:44:45;16.85;;;7.10;;
70812;SDS011;62099;52.170;5.386;2022-10-28T01:47:22;18.33;;;7.32;;
70812;SDS011;62099;52.170;5.386;2022-10-28T01:49:55;22.95;;;8.93;;
70812;SDS011;62099;52.170;5.386;2022-10-28T01:52:26;21.00;;;8.05;;
70812;SDS011;62099;52.170;5.386;2022-10-28T01:55:02;15.13;;;7.43;;
70812;SDS011;62099;52.170;5.386;2022-10-28T01:57:35;21.20;;;7.68;;
70812;SDS011;62099;52.170;5.386;2022-10-28T02:00:05;14.48;;;8.48;;
70812;SDS011;62099;52.170;5.386;2022-10-28T02:02:38;18.55;;;8.18;;
70812;SDS011;62099;52.170;5.386;2022-10-28T02:05:34;21.02;;;8.02;;
70812;SDS011;62099;52.170;5.386;2022-10-28T02:22:20;22.85;;;7.93;;
70812;SDS011;62099;52.170;5.386;2022-10-28T02:32:37;19.73;;;7.65;;
70812;SDS011;62099;52.170;5.386;2022-10-28T02:35:16;16.67;;;6.40;;
70812;SDS011;62099;52.170;5.386;2022-10-28T02:37:47;17.90;;;7.45;;
70812;SDS011;62099;52.170;5.386;2022-10-28T02:40:21;20.55;;;7.38;;
70812;SDS011;62099;52.170;5.386;2022-10-28T02:42:52;19.20;;;8.18;;
70812;SDS011;62099;52.170;5.386;2022-10-28T02:45:28;14.07;;;6.85;;
70812;SDS011;62099;52.170;5.386;2022-10-28T02:48:05;15.80;;;7.63;;
70812;SDS011;62099;52.170;5.386;2022-10-28T02:50:38;15.73;;;6.43;;
70812;SDS011;62099;52.170;5.386;2022-10-28T02:53:16;20.17;;;7.10;;
70812;SDS011;62099;52.170;5.386;2022-10-28T02:55:50;20.70;;;6.72;;
70812;SDS011;62099;52.170;5.386;2022-10-28T03:00:47;21.70;;;7.60;;
70812;SDS011;62099;52.170;5.386;2022-10-28T03:03:14;16.08;;;6.78;;
70812;SDS011;62099;52.170;5.386;2022-10-28T03:05:42;16.15;;;6.10;;
70812;SDS011;62099;52.170;5.386;2022-10-28T03:08:08;15.35;;;5.93;;
70812;SDS011;62099;52.170;5.386;2022-10-28T03:10:35;17.83;;;6.63;;
70812;SDS011;62099;52.170;5.386;2022-10-28T03:13:02;19.88;;;6.88;;
70812;SDS011;62099;52.170;5.386;2022-10-28T03:15:29;16.77;;;6.32;;
70812;SDS011;62099;52.170;5.386;2022-10-28T03:17:55;17.73;;;6.30;;
70812;SDS011;62099;52.170;5.386;2022-10-28T03:20:22;16.00;;;6.00;;
70812;SDS011;62099;52.170;5.386;2022-10-28T03:22:49;19.83;;;6.15;;
70812;SDS011;62099;52.170;5.386;2022-10-28T03:25:16;17.10;;;6.15;;
70812;SDS011;62099;52.170;5.386;2022-10-28T03:27:43;14.52;;;5.78;;
70812;SDS011;62099;52.170;5.386;2022-10-28T03:30:10;17.20;;;5.50;;
70812;SDS011;62099;52.170;5.386;2022-10-28T03:32:38;17.40;;;6.32;;
70812;SDS011;62099;52.170;5.386;2022-10-28T03:35:06;15.98;;;5.93;;
70812;SDS011;62099;52.170;5.386;2022-10-28T03:37:33;16.60;;;6.10;;
70812;SDS011;62099;52.170;5.386;2022-10-28T03:40:00;13.23;;;5.78;;
70812;SDS011;62099;52.170;5.386;2022-10-28T03:42:28;14.93;;;5.80;;
70812;SDS011;62099;52.170;5.386;2022-10-28T03:47:21;16.65;;;6.63;;
70812;SDS011;62099;52.170;5.386;2022-10-28T03:49:48;19.45;;;6.50;;
70812;SDS011;62099;52.170;5.386;2022-10-28T03:52:14;20.92;;;6.50;;
70812;SDS011;62099;52.170;5.386;2022-10-28T03:54:41;16.92;;;6.43;;
70812;SDS011;62099;52.170;5.386;2022-10-28T03:59:34;15.90;;;6.03;;
70812;SDS011;62099;52.170;5.386;2022-10-28T04:02:01;14.20;;;6.10;;
70812;SDS011;62099;52.170;5.386;2022-10-28T04:06:56;17.65;;;5.63;;
70812;SDS011;62099;52.170;5.386;2022-10-28T04:09:22;17.00;;;5.97;;
70812;SDS011;62099;52.170;5.386;2022-10-28T04:11:49;17.33;;;6.38;;
70812;SDS011;62099;52.170;5.386;2022-10-28T04:14:16;16.13;;;5.80;;
70812;SDS011;62099;52.170;5.386;2022-10-28T04:16:43;15.13;;;5.93;;
70812;SDS011;62099;52.170;5.386;2022-10-28T04:19:09;17.02;;;6.47;;
70812;SDS011;62099;52.170;5.386;2022-10-28T04:21:36;17.05;;;6.50;;
70812;SDS011;62099;52.170;5.386;2022-10-28T04:26:30;17.80;;;5.63;;
70812;SDS011;62099;52.170;5.386;2022-10-28T04:28:57;19.00;;;6.32;;
70812;SDS011;62099;52.170;5.386;2022-10-28T04:31:23;17.05;;;6.80;;
70812;SDS011;62099;52.170;5.386;2022-10-28T04:33:50;17.63;;;6.63;;
70812;SDS011;62099;52.170;5.386;2022-10-28T04:36:17;19.60;;;6.50;;
70812;SDS011;62099;52.170;5.386;2022-10-28T04:38:44;17.77;;;6.70;;
70812;SDS011;62099;52.170;5.386;2022-10-28T04:41:11;14.85;;;6.20;;
70812;SDS011;62099;52.170;5.386;2022-10-28T04:43:39;18.45;;;5.72;;
70812;SDS011;62099;52.170;5.386;2022-10-28T04:46:06;16.05;;;4.88;;
70812;SDS011;62099;52.170;5.386;2022-10-28T04:48:33;16.52;;;6.05;;
70812;SDS011;62099;52.170;5.386;2022-10-28T04:51:00;18.48;;;5.82;;
70812;SDS011;62099;52.170;5.386;2022-10-28T04:53:27;22.70;;;6.00;;
70812;SDS011;62099;52.170;5.386;2022-10-28T04:55:57;19.92;;;6.30;;
70812;SDS011;62099;52.170;5.386;2022-10-28T04:58:25;14.43;;;5.53;;
70812;SDS011;62099;52.170;5.386;2022-10-28T05:00:52;18.15;;;5.85;;
70812;SDS011;62099;52.170;5.386;2022-10-28T05:03:18;16.23;;;5.47;;
70812;SDS011;62099;52.170;5.386;2022-10-28T05:05:46;17.27;;;5.63;;
70812;SDS011;62099;52.170;5.386;2022-10-28T05:08:13;14.50;;;5.63;;
70812;SDS011;62099;52.170;5.386;2022-10-28T05:10:40;14.95;;;5.60;;
70812;SDS011;62099;52.170;5.386;2022-10-28T05:13:06;20.25;;;5.68;;
70812;SDS011;62099;52.170;5.386;2022-10-28T05:15:33;18.23;;;5.70;;
70812;SDS011;62099;52.170;5.386;2022-10-28T05:18:00;15.38;;;5.40;;
70812;SDS011;62099;52.170;5.386;2022-10-28T05:20:26;21.05;;;5.40;;
70812;SDS011;62099;52.170;5.386;2022-10-28T05:22:53;15.25;;;5.45;;
70812;SDS011;62099;52.170;5.386;2022-10-28T05:25:22;17.88;;;5.57;;
70812;SDS011;62099;52.170;5.386;2022-10-28T05:27:49;16.08;;;5.80;;
70812;SDS011;62099;52.170;5.386;2022-10-28T05:30:16;12.18;;;4.90;;
70812;SDS011;62099;52.170;5.386;2022-10-28T05:32:43;16.08;;;5.28;;
70812;SDS011;62099;52.170;5.386;2022-10-28T05:35:10;13.57;;;5.05;;
70812;SDS011;62099;52.170;5.386;2022-10-28T05:37:37;18.27;;;5.93;;
70812;SDS011;62099;52.170;5.386;2022-10-28T05:40:04;18.80;;;6.57;;
70812;SDS011;62099;52.170;5.386;2022-10-28T05:42:31;17.40;;;5.85;;
70812;SDS011;62099;52.170;5.386;2022-10-28T05:44:58;18.90;;;6.00;;
70812;SDS011;62099;52.170;5.386;2022-10-28T05:47:24;16.88;;;5.68;;
70812;SDS011;62099;52.170;5.386;2022-10-28T05:49:51;19.02;;;5.63;;
70812;SDS011;62099;52.170;5.386;2022-10-28T05:52:18;15.13;;;4.95;;
70812;SDS011;62099;52.170;5.386;2022-10-28T05:54:44;17.13;;;5.35;;
70812;SDS011;62099;52.170;5.386;2022-10-28T05:57:11;16.15;;;5.60;;
70812;SDS011;62099;52.170;5.386;2022-10-28T05:59:38;15.98;;;5.22;;
70812;SDS011;62099;52.170;5.386;2022-10-28T06:02:05;14.05;;;5.38;;
70812;SDS011;62099;52.170;5.386;2022-10-28T06:04:34;14.63;;;5.40;;
70812;SDS011;62099;52.170;5.386;2022-10-28T06:07:01;19.25;;;5.75;;
70812;SDS011;62099;52.170;5.386;2022-10-28T06:09:27;14.93;;;4.80;;
70812;SDS011;62099;52.170;5.386;2022-10-28T06:11:54;17.58;;;5.38;;
70812;SDS011;62099;52.170;5.386;2022-10-28T06:14:21;15.43;;;5.35;;
70812;SDS011;62099;52.170;5.386;2022-10-28T06:16:48;13.75;;;5.57;;
70812;SDS011;62099;52.170;5.386;2022-10-28T06:19:14;17.70;;;5.05;;
70812;SDS011;62099;52.170;5.386;2022-10-28T06:24:08;16.80;;;5.43;;
70812;SDS011;62099;52.170;5.386;2022-10-28T06:26:39;15.88;;;5.30;;
70812;SDS011;62099;52.170;5.386;2022-10-28T06:29:07;14.90;;;5.20;;
70812;SDS011;62099;52.170;5.386;2022-10-28T06:31:41;14.13;;;4.93;;
70812;SDS011;62099;52.170;5.386;2022-10-28T06:34:08;17.58;;;5.10;;
70812;SDS011;62099;52.170;5.386;2022-10-28T06:36:36;16.73;;;5.50;;
70812;SDS011;62099;52.170;5.386;2022-10-28T06:39:03;18.88;;;5.97;;
70812;SDS011;62099;52.170;5.386;2022-10-28T06:41:30;14.60;;;5.03;;
70812;SDS011;62099;52.170;5.386;2022-10-28T06:43:57;16.27;;;5.18;;
70812;SDS011;62099;52.170;5.386;2022-10-28T06:46:24;15.77;;;5.53;;
70812;SDS011;62099;52.170;5.386;2022-10-28T06:48:52;15.48;;;5.50;;
70812;SDS011;62099;52.170;5.386;2022-10-28T06:51:20;18.45;;;5.78;;
70812;SDS011;62099;52.170;5.386;2022-10-28T06:53:47;15.32;;;4.88;;
70812;SDS011;62099;52.170;5.386;2022-10-28T06:56:17;16.40;;;5.20;;
70812;SDS011;62099;52.170;5.386;2022-10-28T06:58:48;25.42;;;5.03;;
70812;SDS011;62099;52.170;5.386;2022-10-28T07:01:18;17.40;;;5.03;;
70812;SDS011;62099;52.170;5.386;2022-10-28T07:03:46;19.70;;;5.60;;
70812;SDS011;62099;52.170;5.386;2022-10-28T07:06:14;22.05;;;5.50;;
70812;SDS011;62099;52.170;5.386;2022-10-28T07:08:41;17.15;;;4.93;;
70812;SDS011;62099;52.170;5.386;2022-10-28T07:11:08;15.77;;;5.00;;
70812;SDS011;62099;52.170;5.386;2022-10-28T07:13:34;19.42;;;5.15;;
70812;SDS011;62099;52.170;5.386;2022-10-28T07:16:01;16.17;;;5.30;;
70812;SDS011;62099;52.170;5.386;2022-10-28T07:18:30;15.13;;;5.88;;
70812;SDS011;62099;52.170;5.386;2022-10-28T07:20:57;14.57;;;5.25;;
70812;SDS011;62099;52.170;5.386;2022-10-28T07:23:25;18.20;;;4.93;;
70812;SDS011;62099;52.170;5.386;2022-10-28T07:25:52;18.13;;;5.60;;
70812;SDS011;62099;52.170;5.386;2022-10-28T07:28:21;14.35;;;5.15;;
70812;SDS011;62099;52.170;5.386;2022-10-28T07:30:49;19.20;;;5.80;;
70812;SDS011;62099;52.170;5.386;2022-10-28T07:35:43;14.73;;;6.15;;
70812;SDS011;62099;52.170;5.386;2022-10-28T07:38:10;22.10;;;4.95;;
70812;SDS011;62099;52.170;5.386;2022-10-28T07:40:37;18.98;;;5.40;;
70812;SDS011;62099;52.170;5.386;2022-10-28T07:43:03;17.92;;;4.97;;
70812;SDS011;62099;52.170;5.386;2022-10-28T07:45:30;15.05;;;5.65;;
70812;SDS011;62099;52.170;5.386;2022-10-28T07:47:57;20.42;;;5.60;;
70812;SDS011;62099;52.170;5.386;2022-10-28T07:50:24;16.48;;;5.63;;
70812;SDS011;62099;52.170;5.386;2022-10-28T07:52:50;10.95;;;4.68;;
70812;SDS011;62099;52.170;5.386;2022-10-28T07:55:20;10.15;;;4.60;;
70812;SDS011;62099;52.170;5.386;2022-10-28T07:57:47;15.30;;;4.85;;
70812;SDS011;62099;52.170;5.386;2022-10-28T08:00:14;16.17;;;4.85;;
70812;SDS011;62099;52.170;5.386;2022-10-28T08:02:41;13.63;;;5.18;;
70812;SDS011;62099;52.170;5.386;2022-10-28T08:07:35;19.02;;;5.18;;
70812;SDS011;62099;52.170;5.386;2022-10-28T08:10:04;14.48;;;4.90;;
70812;SDS011;62099;52.170;5.386;2022-10-28T08:12:31;14.07;;;4.63;;
70812;SDS011;62099;52.170;5.386;2022-10-28T08:14:58;18.60;;;4.80;;
70812;SDS011;62099;52.170;5.386;2022-10-28T08:19:51;16.00;;;4.85;;
70812;SDS011;62099;52.170;5.386;2022-10-28T08:22:18;18.98;;;4.75;;
70812;SDS011;62099;52.170;5.386;2022-10-28T08:24:45;14.88;;;4.60;;
70812;SDS011;62099;52.170;5.386;2022-10-28T08:27:12;18.33;;;4.80;;
70812;SDS011;62099;52.170;5.386;2022-10-28T08:29:39;16.05;;;4.82;;
70812;SDS011;62099;52.170;5.386;2022-10-28T08:32:06;13.32;;;4.35;;
70812;SDS011;62099;52.170;5.386;2022-10-28T08:34:34;15.15;;;4.07;;
70812;SDS011;62099;52.170;5.386;2022-10-28T08:37:06;15.60;;;4.65;;
70812;SDS011;62099;52.170;5.386;2022-10-28T08:39:32;11.73;;;3.63;;
70812;SDS011;62099;52.170;5.386;2022-10-28T08:44:49;12.95;;;4.20;;
70812;SDS011;62099;52.170;5.386;2022-10-28T08:50:19;14.98;;;4.35;;
70812;SDS011;62099;52.170;5.386;2022-10-28T08:55:27;16.77;;;4.20;;
70812;SDS011;62099;52.170;5.386;2022-10-28T08:58:07;17.98;;;4.15;;
70812;SDS011;62099;52.170;5.386;2022-10-28T09:00:36;14.73;;;4.28;;
70812;SDS011;62099;52.170;5.386;2022-10-28T09:03:16;14.02;;;4.00;;
70812;SDS011;62099;52.170;5.386;2022-10-28T09:06:02;17.23;;;4.47;;
70812;SDS011;62099;52.170;5.386;2022-10-28T09:08:32;15.05;;;4.65;;
70812;SDS011;62099;52.170;5.386;2022-10-28T09:11:12;12.73;;;4.22;;
70812;SDS011;62099;52.170;5.386;2022-10-28T09:18:53;13.55;;;4.07;;
70812;SDS011;62099;52.170;5.386;2022-10-28T09:21:24;14.43;;;4.00;;
70812;SDS011;62099;52.170;5.386;2022-10-28T09:23:55;11.02;;;3.95;;
70812;SDS011;62099;52.170;5.386;2022-10-28T09:26:47;17.17;;;3.60;;
70812;SDS011;62099;52.170;5.386;2022-10-28T09:32:00;10.95;;;3.78;;
70812;SDS011;62099;52.170;5.386;2022-10-28T09:39:44;15.73;;;3.95;;
70812;SDS011;62099;52.170;5.386;2022-10-28T09:42:18;14.25;;;4.03;;
70812;SDS011;62099;52.170;5.386;2022-10-28T09:44:51;13.18;;;3.60;;
70812;SDS011;62099;52.170;5.386;2022-10-28T09:47:47;12.85;;;3.75;;
70812;SDS011;62099;52.170;5.386;2022-10-28T09:50:38;16.10;;;3.90;;
70812;SDS011;62099;52.170;5.386;2022-10-28T09:56:01;13.00;;;4.18;;
70812;SDS011;62099;52.170;5.386;2022-10-28T09:58:30;18.85;;;4.70;;
70812;SDS011;62099;52.170;5.386;2022-10-28T10:01:01;21.00;;;4.60;;
70812;SDS011;62099;52.170;5.386;2022-10-28T10:03:30;17.10;;;4.35;;
70812;SDS011;62099;52.170;5.386;2022-10-28T10:05:58;12.25;;;3.85;;
70812;SDS011;62099;52.170;5.386;2022-10-28T10:08:38;12.13;;;4.25;;
70812;SDS011;62099;52.170;5.386;2022-10-28T10:11:08;16.58;;;4.57;;
70812;SDS011;62099;52.170;5.386;2022-10-28T10:13:52;15.68;;;4.05;;
70812;SDS011;62099;52.170;5.386;2022-10-28T10:19:12;12.98;;;5.20;;
70812;SDS011;62099;52.170;5.386;2022-10-28T10:21:40;13.85;;;3.70;;
70812;SDS011;62099;52.170;5.386;2022-10-28T10:26:54;10.35;;;3.60;;
70812;SDS011;62099;52.170;5.386;2022-10-28T10:29:42;11.00;;;3.88;;
70812;SDS011;62099;52.170;5.386;2022-10-28T10:32:17;14.70;;;3.92;;
70812;SDS011;62099;52.170;5.386;2022-10-28T10:34:50;11.32;;;3.60;;
70812;SDS011;62099;52.170;5.386;2022-10-28T10:37:28;16.85;;;4.40;;
70812;SDS011;62099;52.170;5.386;2022-10-28T10:42:41;14.52;;;4.18;;
70812;SDS011;62099;52.170;5.386;2022-10-28T10:45:28;11.63;;;3.65;;
70812;SDS011;62099;52.170;5.386;2022-10-28T10:48:13;13.75;;;4.10;;
70812;SDS011;62099;52.170;5.386;2022-10-28T10:50:42;13.93;;;4.00;;
70812;SDS011;62099;52.170;5.386;2022-10-28T10:53:26;20.67;;;4.82;;
70812;SDS011;62099;52.170;5.386;2022-10-28T10:55:56;15.57;;;3.85;;
70812;SDS011;62099;52.170;5.386;2022-10-28T10:58:27;17.35;;;4.40;;
70812;SDS011;62099;52.170;5.386;2022-10-28T11:00:58;12.32;;;3.58;;
70812;SDS011;62099;52.170;5.386;2022-10-28T11:03:32;15.90;;;4.38;;
70812;SDS011;62099;52.170;5.386;2022-10-28T11:06:02;17.70;;;3.92;;
70812;SDS011;62099;52.170;5.386;2022-10-28T11:08:49;14.82;;;3.80;;
70812;SDS011;62099;52.170;5.386;2022-10-28T11:11:21;12.45;;;3.92;;
70812;SDS011;62099;52.170;5.386;2022-10-28T11:14:03;15.52;;;4.15;;
70812;SDS011;62099;52.170;5.386;2022-10-28T11:16:53;14.45;;;4.40;;
70812;SDS011;62099;52.170;5.386;2022-10-28T11:19:29;12.95;;;3.65;;
70812;SDS011;62099;52.170;5.386;2022-10-28T11:22:00;18.90;;;4.32;;
70812;SDS011;62099;52.170;5.386;2022-10-28T11:27:39;15.05;;;3.88;;
70812;SDS011;62099;52.170;5.386;2022-10-28T11:33:17;19.15;;;4.13;;
70812;SDS011;62099;52.170;5.386;2022-10-28T11:35:58;13.50;;;3.80;;
70812;SDS011;62099;52.170;5.386;2022-10-28T11:41:21;15.07;;;4.07;;
70812;SDS011;62099;52.170;5.386;2022-10-28T11:43:53;16.50;;;4.13;;
70812;SDS011;62099;52.170;5.386;2022-10-28T11:51:52;14.57;;;3.67;;
70812;SDS011;62099;52.170;5.386;2022-10-28T11:54:46;11.80;;;3.67;;
70812;SDS011;62099;52.170;5.386;2022-10-28T11:57:45;13.75;;;4.05;;
70812;SDS011;62099;52.170;5.386;2022-10-28T12:00:49;12.85;;;3.65;;
70812;SDS011;62099;52.170;5.386;2022-10-28T12:14:50;12.90;;;3.42;;
70812;SDS011;62099;52.170;5.386;2022-10-28T12:17:37;18.13;;;3.65;;
70812;SDS011;62099;52.170;5.386;2022-10-28T12:20:15;13.50;;;3.63;;
70812;SDS011;62099;52.170;5.386;2022-10-28T12:23:00;15.98;;;3.35;;
70812;SDS011;62099;52.170;5.386;2022-10-28T12:25:32;16.13;;;3.90;;
70812;SDS011;62099;52.170;5.386;2022-10-28T12:28:25;16.95;;;3.45;;
70812;SDS011;62099;52.170;5.386;2022-10-28T12:30:49;14.57;;;3.45;;
70812;SDS011;62099;52.170;5.386;2022-10-28T12:36:11;18.45;;;3.35;;
70812;SDS011;62099;52.170;5.386;2022-10-28T12:38:54;14.48;;;4.00;;
70812;SDS011;62099;52.170;5.386;2022-10-28T12:41:26;17.40;;;3.95;;
70812;SDS011;62099;52.170;5.386;2022-10-28T12:44:18;11.30;;;3.20;;
70812;SDS011;62099;52.170;5.386;2022-10-28T12:49:35;20.20;;;3.95;;
70812;SDS011;62099;52.170;5.386;2022-10-28T12:52:29;19.70;;;3.97;;
70812;SDS011;62099;52.170;5.386;2022-10-28T12:55:25;14.73;;;3.65;;
70812;SDS011;62099;52.170;5.386;2022-10-28T13:00:33;15.13;;;3.63;;
70812;SDS011;62099;52.170;5.386;2022-10-28T13:03:03;15.13;;;3.47;;
70812;SDS011;62099;52.170;5.386;2022-10-28T13:08:32;16.85;;;3.88;;
70812;SDS011;62099;52.170;5.386;2022-10-28T13:14:06;13.55;;;3.33;;
70812;SDS011;62099;52.170;5.386;2022-10-28T13:28:05;12.38;;;3.20;;
70812;SDS011;62099;52.170;5.386;2022-10-28T13:30:50;13.25;;;3.22;;
70812;SDS011;62099;52.170;5.386;2022-10-28T13:33:27;19.95;;;4.30;;
70812;SDS011;62099;52.170;5.386;2022-10-28T13:36:06;15.65;;;3.60;;
70812;SDS011;62099;52.170;5.386;2022-10-28T13:38:41;17.98;;;3.30;;
70812;SDS011;62099;52.170;5.386;2022-10-28T13:41:25;15.55;;;3.75;;
70812;SDS011;62099;52.170;5.386;2022-10-28T13:47:03;15.60;;;3.90;;
70812;SDS011;62099;52.170;5.386;2022-10-28T13:52:33;15.85;;;3.95;;
70812;SDS011;62099;52.170;5.386;2022-10-28T13:57:59;13.25;;;3.42;;
70812;SDS011;62099;52.170;5.386;2022-10-28T14:03:04;11.60;;;3.42;;
70812;SDS011;62099;52.170;5.386;2022-10-28T14:13:21;12.88;;;3.50;;
70812;SDS011;62099;52.170;5.386;2022-10-28T14:15:48;15.77;;;3.72;;
70812;SDS011;62099;52.170;5.386;2022-10-28T14:18:39;12.32;;;3.50;;
70812;SDS011;62099;52.170;5.386;2022-10-28T14:21:10;10.80;;;3.58;;
70812;SDS011;62099;52.170;5.386;2022-10-28T14:26:09;13.65;;;3.90;;
70812;SDS011;62099;52.170;5.386;2022-10-28T14:49:38;13.85;;;3.60;;
70812;SDS011;62099;52.170;5.386;2022-10-28T14:52:09;11.80;;;2.85;;
70812;SDS011;62099;52.170;5.386;2022-10-28T14:57:12;16.17;;;3.75;;
70812;SDS011;62099;52.170;5.386;2022-10-28T14:59:39;16.17;;;3.25;;
70812;SDS011;62099;52.170;5.386;2022-10-28T15:02:10;16.08;;;3.85;;
70812;SDS011;62099;52.170;5.386;2022-10-28T15:04:43;21.88;;;3.50;;
70812;SDS011;62099;52.170;5.386;2022-10-28T15:07:13;11.40;;;3.70;;
70812;SDS011;62099;52.170;5.386;2022-10-28T15:09:42;13.43;;;3.53;;
70812;SDS011;62099;52.170;5.386;2022-10-28T15:12:12;10.70;;;2.97;;
70812;SDS011;62099;52.170;5.386;2022-10-28T15:17:14;13.90;;;3.45;;
70812;SDS011;62099;52.170;5.386;2022-10-28T15:19:45;16.00;;;3.45;;
70812;SDS011;62099;52.170;5.386;2022-10-28T15:22:20;14.00;;;3.65;;
70812;SDS011;62099;52.170;5.386;2022-10-28T15:24:51;10.70;;;3.15;;
70812;SDS011;62099;52.170;5.386;2022-10-28T15:27:19;15.10;;;3.22;;
70812;SDS011;62099;52.170;5.386;2022-10-28T15:29:47;9.50;;;3.25;;
70812;SDS011;62099;52.170;5.386;2022-10-28T15:34:44;12.50;;;3.03;;
70812;SDS011;62099;52.170;5.386;2022-10-28T15:37:18;15.38;;;3.60;;
70812;SDS011;62099;52.170;5.386;2022-10-28T15:40:08;12.82;;;3.17;;
70812;SDS011;62099;52.170;5.386;2022-10-28T15:45:42;14.07;;;3.03;;
70812;SDS011;62099;52.170;5.386;2022-10-28T15:48:13;11.43;;;3.20;;
70812;SDS011;62099;52.170;5.386;2022-10-28T15:53:41;13.43;;;2.65;;
70812;SDS011;62099;52.170;5.386;2022-10-28T16:01:34;13.48;;;2.88;;
70812;SDS011;62099;52.170;5.386;2022-10-28T16:04:04;13.40;;;2.90;;
70812;SDS011;62099;52.170;5.386;2022-10-28T16:06:32;15.80;;;4.05;;
70812;SDS011;62099;52.170;5.386;2022-10-28T16:11:45;11.35;;;2.70;;
70812;SDS011;62099;52.170;5.386;2022-10-28T16:14:19;12.90;;;3.40;;
70812;SDS011;62099;52.170;5.386;2022-10-28T16:16:51;12.15;;;3.28;;
70812;SDS011;62099;52.170;5.386;2022-10-28T16:19:27;10.30;;;2.47;;
70812;SDS011;62099;52.170;5.386;2022-10-28T16:21:58;10.88;;;2.65;;
70812;SDS011;62099;52.170;5.386;2022-10-28T16:24:25;17.33;;;3.67;;
70812;SDS011;62099;52.170;5.386;2022-10-28T16:29:18;13.45;;;2.97;;
70812;SDS011;62099;52.170;5.386;2022-10-28T16:34:16;16.95;;;3.20;;
70812;SDS011;62099;52.170;5.386;2022-10-28T16:36:42;13.30;;;3.22;;
70812;SDS011;62099;52.170;5.386;2022-10-28T16:39:10;12.07;;;2.70;;
70812;SDS011;62099;52.170;5.386;2022-10-28T16:41:38;15.25;;;2.90;;
70812;SDS011;62099;52.170;5.386;2022-10-28T16:44:15;12.88;;;3.08;;
70812;SDS011;62099;52.170;5.386;2022-10-28T16:46:43;8.93;;;2.75;;
70812;SDS011;62099;52.170;5.386;2022-10-28T16:49:10;11.30;;;3.13;;
70812;SDS011;62099;52.170;5.386;2022-10-28T16:51:36;12.52;;;3.20;;
70812;SDS011;62099;52.170;5.386;2022-10-28T16:54:07;14.05;;;2.85;;
70812;SDS011;62099;52.170;5.386;2022-10-28T16:59:00;16.67;;;2.80;;
70812;SDS011;62099;52.170;5.386;2022-10-28T17:01:27;13.23;;;3.80;;
70812;SDS011;62099;52.170;5.386;2022-10-28T17:03:53;17.48;;;3.20;;
70812;SDS011;62099;52.170;5.386;2022-10-28T17:08:47;11.27;;;2.92;;
70812;SDS011;62099;52.170;5.386;2022-10-28T17:11:28;13.05;;;3.20;;
70812;SDS011;62099;52.170;5.386;2022-10-28T17:13:56;17.90;;;3.55;;
70812;SDS011;62099;52.170;5.386;2022-10-28T17:16:23;12.63;;;3.47;;
70812;SDS011;62099;52.170;5.386;2022-10-28T17:18:50;10.48;;;2.97;;
70812;SDS011;62099;52.170;5.386;2022-10-28T17:21:17;15.50;;;3.65;;
70812;SDS011;62099;52.170;5.386;2022-10-28T17:23:44;13.63;;;3.45;;
70812;SDS011;62099;52.170;5.386;2022-10-28T17:26:10;14.68;;;3.55;;
70812;SDS011;62099;52.170;5.386;2022-10-28T17:28:37;14.82;;;3.22;;
70812;SDS011;62099;52.170;5.386;2022-10-28T17:33:32;19.10;;;3.85;;
70812;SDS011;62099;52.170;5.386;2022-10-28T17:36:02;10.63;;;3.15;;
70812;SDS011;62099;52.170;5.386;2022-10-28T17:38:31;13.27;;;3.15;;
70812;SDS011;62099;52.170;5.386;2022-10-28T17:40:57;14.18;;;3.30;;
70812;SDS011;62099;52.170;5.386;2022-10-28T17:45:51;14.32;;;3.75;;
70812;SDS011;62099;52.170;5.386;2022-10-28T17:48:17;13.68;;;3.60;;
70812;SDS011;62099;52.170;5.386;2022-10-28T17:53:18;17.05;;;3.20;;
70812;SDS011;62099;52.170;5.386;2022-10-28T17:55:45;15.15;;;3.85;;
70812;SDS011;62099;52.170;5.386;2022-10-28T17:58:27;18.13;;;3.92;;
70812;SDS011;62099;52.170;5.386;2022-10-28T18:00:58;18.30;;;4.22;;
70812;SDS011;62099;52.170;5.386;2022-10-28T18:03:26;19.63;;;4.88;;
70812;SDS011;62099;52.170;5.386;2022-10-28T18:05:53;23.08;;;4.97;;
70812;SDS011;62099;52.170;5.386;2022-10-28T18:08:20;15.07;;;4.10;;
70812;SDS011;62099;52.170;5.386;2022-10-28T18:10:55;17.35;;;3.97;;
70812;SDS011;62099;52.170;5.386;2022-10-28T18:13:25;16.15;;;4.18;;
70812;SDS011;62099;52.170;5.386;2022-10-28T18:15:53;14.18;;;3.60;;
70812;SDS011;62099;52.170;5.386;2022-10-28T18:20:53;13.88;;;3.40;;
70812;SDS011;62099;52.170;5.386;2022-10-28T18:23:21;18.02;;;4.43;;
70812;SDS011;62099;52.170;5.386;2022-10-28T18:25:57;15.93;;;4.28;;
70812;SDS011;62099;52.170;5.386;2022-10-28T18:28:29;12.23;;;3.78;;
70812;SDS011;62099;52.170;5.386;2022-10-28T18:31:00;17.38;;;4.40;;
70812;SDS011;62099;52.170;5.386;2022-10-28T18:33:32;18.60;;;4.50;;
70812;SDS011;62099;52.170;5.386;2022-10-28T18:36:00;16.48;;;4.00;;
70812;SDS011;62099;52.170;5.386;2022-10-28T18:38:28;18.17;;;4.10;;
70812;SDS011;62099;52.170;5.386;2022-10-28T18:40:56;17.50;;;3.83;;
70812;SDS011;62099;52.170;5.386;2022-10-28T18:43:23;16.83;;;4.22;;
70812;SDS011;62099;52.170;5.386;2022-10-28T18:45:50;16.00;;;4.20;;
70812;SDS011;62099;52.170;5.386;2022-10-28T18:48:17;16.35;;;4.30;;
70812;SDS011;62099;52.170;5.386;2022-10-28T18:50:53;14.70;;;3.33;;
70812;SDS011;62099;52.170;5.386;2022-10-28T18:53:21;15.35;;;4.03;;
70812;SDS011;62099;52.170;5.386;2022-10-28T18:58:15;12.48;;;2.72;;
70812;SDS011;62099;52.170;5.386;2022-10-28T19:00:42;19.15;;;3.97;;